Kramer, ND

7:40 PM CDT on October 25, 2014 (GMT -0500)
RAWS J. CLARK SALYER ND US | Change Station
CLOSE
Current Station
Personal Weather Station
Location: Upham, ND
Elevation: 1439 ft
Nearby Weather Stations

Elev 1439 ft 48.62 °N, 100.73 °W | Updated 54 minutes ago

Clear
Clear
51 °F
Feels Like 51 °F
N
1
Wind Variable Wind from ESE
Gusts 2.0 mph

Today
High -- | Low -- °F
--% Chance of Precip.
Yesterday
High -- | Low -- °F
Precip. -- in
8:18 AM 6:34 PM
Waxing Crescent, 5% visible
Pressure 30.01 in
Visibility 5.0 miles
Clouds Clear
Dew Point 25 °F
Humidity 36%
Rainfall 0.00 in
Snow Depth Not available.
UV 0 out of 12
Pollen 1.80 out of 12
Air Quality Not available.
Flu Activity Sporadic
METAR KRUG 260035Z AUTO 17005KT 5SM HZ CLR 10/M03 A3001 RMK AO2

More Conditions Fewer Conditions

Pressure 30.01 in
Visibility 5.0 miles
Clouds Clear
Dew Point 25 °F
Humidity 36%
Rainfall 0.00 in
Snow Depth Not available.
UV 0 out of 12
Pollen 1.80 out of 12
Air Quality Not available.
Flu Activity Sporadic
METAR KRUG 260035Z AUTO 17005KT 5SM HZ CLR 10/M03 A3001 RMK AO2

More Conditions Fewer Conditions

10-Day Weather Forecast

Almanac

Astronomy

Oct. 25, 2014 Rise Set
Actual Time 8:18 AM CDT 6:34 PM CDT
Civil Twilight 7:45 AM CDT 7:06 PM CDT
Nautical Twilight 7:09 AM CDT 7:43 PM CDT
Astronomical Twilight 6:32 AM CDT 8:19 PM CDT
Moon 10:05 AM CDT (10/25) 7:51 PM CDT (10/25)
Length of Visible Light 11h 20m
Length of Day
10h 16m
Tomorrow will be 3m 20s shorter.
Waxing Crescent, 5% of the Moon is Illuminated
Today
Waxing Crescent
Oct 30
First Quarter
Nov 6
Full
Nov 14
Last Quarter
Nov 22
New

Today's Extremes

State Highs State Lows

Community

WunderPhotos

Upload Photos

1,765,052 photos uploaded!

Nearby

Snow Depth

Station Depth Elevation
No new snow has been reported.

Earthquake Activity

City Distance Mag. Time & Date
No recent earthquake activity has been reported nearby.
Minimum magnitude displayed is 2.5.

Coastal Water Temperatures

Place Temperature
No Stations Reporting

Nearby Weather Stations